Webcam Meteoipassi more information Webcam Meteoipassi


Pisa torre orologio more information Pisa torre orologio


avvertimento per Temporali more information blitzortung!


avvertimento per Pioggia more information rain snow radar


altri nostri siti meteo:

Pomeziameteo 1Sito sul meteo

Pomeziameteo DashboardSito sul meteo

Caput FrigorisSito sul meteo

BarcellonameteoSito sul meteo

MeteoipassiSito sul meteo

ViterbometeoSito sul meteo

MeteotortoretoSito sul meteo

TortoretometeolidoSito sul meteo

MeteoGonzagaSito sul meteo



Temporali Inizio validita dal: 17-01-2020 19:00 Fino: 18-01-2020 07:59 Allerta per: Temporali Livello: Arancione info button
Pioggia Inizio validita dal: 17-01-2020 19:00 Fino: 18-01-2020 07:59 Allerta per: Pioggia Livello: Arancione info button
Vento Inizio validita dal: 17-01-2020 09:00 Fino: 19-01-2020 23:59 Allerta per: Vento Livello: Giallo info button

Report METAR

   
LIRQ - Firenze
Dati ricevuti: Jan 18 2020 9:20 am
Molto nuvoloso  
Molto nuvoloso  
   Vento: NE 3.7 km/h
Vento: NE 3.7 km/h
Temperatura: 7°C
P.to Rugiada: 7°C
Umidita: 100%
Barometro: 1021 hPa
Nuvole: Molto nuvoloso
Visibilita: oltre 10 km
dettagli cloud: Molto nuvoloso 1219.2 m
LIRQ 180820Z 05002KT 9999 BKN040 07/07 Q1021
LIRP - Lucca
Dati ricevuti: Jan 18 2020 9:15 am
Pioggia leggera, Molto nuvoloso  
Pioggia leggera, Molto nuvoloso  
   Vento: SE 3.7 km/h
Vento: SE 3.7 km/h
Temperatura: 9°C
P.to Rugiada: 8°C
Umidita: 94%
Barometro: 1020 hPa
Nuvole: Molto nuvoloso
Visibilita: oltre 10 km
dettagli cloud: Parzialmente nuvoloso 914.4 m,
Molto nuvoloso 1524 m
LIRP 180815Z 13002KT 9999 -RA SCT030 BKN050 09/08 Q1020 NOSIG
LIRP - Livorno
Dati ricevuti: Jan 18 2020 9:15 am
Pioggia leggera, Molto nuvoloso  
Pioggia leggera, Molto nuvoloso  
   Vento: SE 3.7 km/h
Vento: SE 3.7 km/h
Temperatura: 9°C
P.to Rugiada: 8°C
Umidita: 94%
Barometro: 1020 hPa
Nuvole: Molto nuvoloso
Visibilita: oltre 10 km
dettagli cloud: Parzialmente nuvoloso 914.4 m,
Molto nuvoloso 1524 m
LIRP 180815Z 13002KT 9999 -RA SCT030 BKN050 09/08 Q1020 NOSIG
LIMP - Parma
Dati ricevuti: Jan 18 2020 8:50 am
Pioggia leggera, Nebbia, Coperto  
Pioggia leggera, Nebbia, Coperto  
   Vento: W 14.8 km/h
Vento: W 14.8 km/h
Temperatura: 5°C
Temperatura Vento: 2°C
P.to Rugiada: 5°C
Umidita: 100%
Barometro: 1024 hPa
Nuvole: Coperto
Visibilita: 2 km
dettagli cloud: Coperto 609.6 m
LIMP 180750Z 29008KT 2000 -RA BR OVC020 05/05 Q1024
LIRF - Roma
Dati ricevuti: Jan 18 2020 9:20 am
Molto nuvoloso  
Molto nuvoloso  
   Vento: Oriente 18.5 km/h
Vento: Oriente 18.5 km/h
Temperatura: 10°C
Temperatura Vento: 8°C
P.to Rugiada: 9°C
Umidita: 94%
Barometro: 1021 hPa
Nuvole: Molto nuvoloso
Visibilita: 9 km
dettagli cloud: Parzialmente nuvoloso 762 m,
Molto nuvoloso 1066.8 m
LIRF 180820Z 09010KT 9000 SCT025 BKN035 10/09 Q1021 NOSIG
 

Script sviluppato da  Saratoga-weather.org Adattato per il modello da  Weerstation Leuven

Potete trovare le nostre info meteo anche a:

European Weather Network

Weather Underground

AWEKAS

HAMweather, WeatherForYou, PWS Weather

Strumentazione usata:

Stazione meteo
Oregon Scientific WMR88

Programma gestore dati meteo
WVIEW

Server per i dati meteo
WDS-5

Provider
Anemos WDS-5

Oregon Scientific WMR88

WVIEW

WDS-5

Anemos WDS-5